Sant Lluis, Spain
Current Conditions -  °F | °C
As of 6:00 AM on Friday 26 Dec 2014 (Local Time) from LEMH Reporting Station
Broken Clouds Broken Clouds  
Wind Chill: 52°   Ceiling: 2200
Heat Index: 52°   Visibility: 6mi
Dew Point: 48°   Wind: 10mph
Humidity: 88%   Direction: 350°N
Pressure: 30.33"   Gusts: NA
Location:  39.85°N, 4.26°E
Report Text: LEMH 260500Z 35009KT 9999 FEW015 BKN022 11/09 Q1027
Loading
Personal Weather Stations






























Interactive Weather Map New forecast layout! Learn more

10-Day Weather Forecast

Advertisements
Track Severe Weather on mobile